createdAt,value
2023-03-16T00:00:16.641Z,0.00
2023-03-16T00:01:16.630Z,0.00
2023-03-16T00:02:16.638Z,0.00
2023-03-16T00:03:16.646Z,0.00
2023-03-16T00:04:16.604Z,0.00
2023-03-16T00:05:16.606Z,0.00
2023-03-16T00:06:16.580Z,0.00
2023-03-16T00:07:16.581Z,0.00
2023-03-16T00:08:16.563Z,0.00
2023-03-16T00:09:16.549Z,0.00
2023-03-16T00:10:16.539Z,0.00
2023-03-16T00:11:16.526Z,0.00
2023-03-16T00:12:16.553Z,0.00
2023-03-16T00:13:16.520Z,0.00
2023-03-16T00:14:16.529Z,0.00
2023-03-16T00:15:16.480Z,0.00
2023-03-16T00:16:16.523Z,0.00
2023-03-16T00:17:16.458Z,0.00
2023-03-16T00:18:16.453Z,0.00
2023-03-16T00:19:16.508Z,0.00
2023-03-16T00:20:16.450Z,0.00
2023-03-16T00:21:16.426Z,0.00
2023-03-16T00:22:16.412Z,0.00
2023-03-16T00:23:16.398Z,0.00
2023-03-16T00:24:16.396Z,0.00
2023-03-16T00:25:16.423Z,0.00
2023-03-16T00:26:16.393Z,0.00
2023-03-16T00:27:16.365Z,0.00
2023-03-16T00:28:16.351Z,0.00
2023-03-16T00:29:16.334Z,0.00
2023-03-16T00:30:16.342Z,0.00
2023-03-16T00:31:16.391Z,0.00
2023-03-16T00:32:16.315Z,0.00
2023-03-16T00:33:16.297Z,0.00
2023-03-16T00:34:16.288Z,0.00
2023-03-16T00:35:16.284Z,0.00
2023-03-16T00:36:16.275Z,0.00
2023-03-16T00:37:16.275Z,0.00
2023-03-16T00:38:16.248Z,0.00
2023-03-16T00:39:16.243Z,0.00
2023-03-16T00:40:16.231Z,0.00
2023-03-16T00:41:16.213Z,0.00
2023-03-16T00:42:16.214Z,0.00
2023-03-16T00:43:16.211Z,0.00
2023-03-16T00:44:16.184Z,0.00
2023-03-16T00:45:16.169Z,0.00
2023-03-16T00:46:16.326Z,0.00
2023-03-16T00:47:16.141Z,0.00
2023-03-16T00:48:16.135Z,0.00
2023-03-16T00:49:16.127Z,0.00
2023-03-16T00:50:16.127Z,0.00
2023-03-16T00:51:16.104Z,0.00
2023-03-16T00:52:16.149Z,0.00
2023-03-16T00:53:16.098Z,0.00
2023-03-16T00:54:16.080Z,0.00
2023-03-16T00:55:16.068Z,0.00
2023-03-16T00:56:16.069Z,0.00
2023-03-16T00:57:16.056Z,0.00
2023-03-16T00:58:16.046Z,0.00
2023-03-16T00:59:16.033Z,0.00
2023-03-16T01:00:16.026Z,0.00
2023-03-16T01:01:16.118Z,0.00
2023-03-16T01:02:15.996Z,0.00
2023-03-16T01:03:16.016Z,0.00
2023-03-16T01:04:15.972Z,0.00
2023-03-16T01:05:15.973Z,0.00
2023-03-16T01:06:15.950Z,0.00
2023-03-16T01:07:15.937Z,0.00
2023-03-16T01:08:15.944Z,0.00
2023-03-16T01:09:15.920Z,0.00
2023-03-16T01:10:15.911Z,0.00
2023-03-16T01:11:15.912Z,0.00
2023-03-16T01:12:15.899Z,0.00
2023-03-16T01:13:15.876Z,0.00
2023-03-16T01:14:15.874Z,0.00
2023-03-16T01:15:15.874Z,0.00
2023-03-16T01:16:15.920Z,0.00
2023-03-16T01:17:15.840Z,0.00
2023-03-16T01:18:15.829Z,0.00
2023-03-16T01:19:15.849Z,0.00
2023-03-16T01:20:15.813Z,0.00
2023-03-16T01:21:15.822Z,0.00
2023-03-16T01:22:15.800Z,0.00
2023-03-16T01:23:15.791Z,0.00
2023-03-16T01:24:15.771Z,0.00
2023-03-16T01:25:15.772Z,0.00
2023-03-16T01:26:15.773Z,0.00
2023-03-16T01:27:15.734Z,0.00
2023-03-16T01:28:15.732Z,0.00
2023-03-16T01:29:15.724Z,0.00
2023-03-16T01:30:15.710Z,0.00
2023-03-16T01:31:15.827Z,0.00
2023-03-16T01:32:15.693Z,0.00
2023-03-16T01:33:15.688Z,0.00
2023-03-16T01:34:15.680Z,0.00
2023-03-16T01:35:15.662Z,0.00
2023-03-16T01:36:15.665Z,0.00
2023-03-16T01:37:15.633Z,0.00
2023-03-16T01:38:15.632Z,0.00
2023-03-16T01:39:15.619Z,0.00
2023-03-16T01:40:15.611Z,0.00
2023-03-16T01:41:15.609Z,0.00
2023-03-16T01:42:15.596Z,0.00
2023-03-16T01:43:15.575Z,0.00
2023-03-16T01:44:15.581Z,0.00
2023-03-16T01:45:15.561Z,0.00
2023-03-16T01:46:15.610Z,0.00
2023-03-16T01:47:15.575Z,0.00
2023-03-16T01:48:15.539Z,0.00
2023-03-16T01:49:15.514Z,0.00
2023-03-16T01:50:15.517Z,0.00
2023-03-16T01:51:15.501Z,0.00
2023-03-16T01:52:15.516Z,0.00
2023-03-16T01:53:15.524Z,0.00
2023-03-16T01:54:15.479Z,0.00
2023-03-16T01:55:15.464Z,0.00
2023-03-16T01:56:15.446Z,0.00
2023-03-16T01:57:15.478Z,0.00
2023-03-16T01:58:15.485Z,0.00
2023-03-16T01:59:15.464Z,0.00
2023-03-16T02:00:15.447Z,0.00
2023-03-16T02:01:15.462Z,0.00
2023-03-16T02:02:15.431Z,0.00
2023-03-16T02:03:15.394Z,0.00
2023-03-16T02:04:15.430Z,0.00
2023-03-16T02:05:15.355Z,0.00
2023-03-16T02:06:15.364Z,0.00
2023-03-16T02:07:15.344Z,0.00
2023-03-16T02:08:15.324Z,0.00
2023-03-16T02:09:15.321Z,0.00
2023-03-16T02:10:15.322Z,0.00
2023-03-16T02:11:15.294Z,0.00
2023-03-16T02:12:15.304Z,0.00
2023-03-16T02:13:15.292Z,0.00
2023-03-16T02:14:15.265Z,0.00
2023-03-16T02:15:15.250Z,0.00
2023-03-16T02:16:15.338Z,0.00
2023-03-16T02:17:15.237Z,0.00
2023-03-16T02:18:15.243Z,0.00
2023-03-16T02:19:15.207Z,0.00
2023-03-16T02:20:15.266Z,0.00
2023-03-16T02:21:15.198Z,0.00
2023-03-16T02:22:15.180Z,0.00
2023-03-16T02:23:15.179Z,0.00
2023-03-16T02:24:15.158Z,0.00
2023-03-16T02:25:15.152Z,0.00
2023-03-16T02:26:15.151Z,0.00
2023-03-16T02:27:15.171Z,0.00
2023-03-16T02:28:15.137Z,0.00
2023-03-16T02:29:15.129Z,0.00
2023-03-16T02:30:15.114Z,0.00
2023-03-16T02:31:15.124Z,0.00
2023-03-16T02:32:15.084Z,0.00
2023-03-16T02:33:15.071Z,0.00
2023-03-16T02:34:15.067Z,0.00
2023-03-16T02:35:15.101Z,0.00
2023-03-16T02:36:15.045Z,0.00
2023-03-16T02:37:15.030Z,0.00
2023-03-16T02:38:15.025Z,0.00
2023-03-16T02:39:15.013Z,0.00
2023-03-16T02:40:14.998Z,0.00
2023-03-16T02:41:15.007Z,0.00
2023-03-16T02:42:14.979Z,0.00
2023-03-16T02:43:14.978Z,0.00
2023-03-16T02:44:14.979Z,0.00
2023-03-16T02:45:14.954Z,0.00
2023-03-16T02:46:15.015Z,0.00
2023-03-16T02:47:14.923Z,0.00
2023-03-16T02:48:14.921Z,0.00
2023-03-16T02:49:14.905Z,0.00
2023-03-16T02:50:14.899Z,0.00
2023-03-16T02:51:14.904Z,0.00
2023-03-16T02:52:14.894Z,0.00
2023-03-16T02:53:14.861Z,0.00
2023-03-16T02:54:14.861Z,0.00
2023-03-16T02:55:14.844Z,0.00
2023-03-16T02:56:14.848Z,0.00
2023-03-16T02:57:14.826Z,0.00
2023-03-16T02:58:14.814Z,0.00
2023-03-16T02:59:14.812Z,0.00
2023-03-16T03:00:14.799Z,0.00
2023-03-16T03:01:14.796Z,0.00
2023-03-16T03:02:14.776Z,0.00
2023-03-16T03:03:14.804Z,0.00
2023-03-16T03:04:14.768Z,0.00
2023-03-16T03:05:14.755Z,0.00
2023-03-16T03:06:14.759Z,0.00
2023-03-16T03:07:14.729Z,0.00
2023-03-16T03:08:14.721Z,0.00
2023-03-16T03:09:14.716Z,0.00
2023-03-16T03:10:14.714Z,0.00
2023-03-16T03:11:14.706Z,0.00
2023-03-16T03:12:14.684Z,0.00
2023-03-16T03:13:14.676Z,0.00
2023-03-16T03:14:14.664Z,0.00
2023-03-16T03:15:14.658Z,0.00
2023-03-16T03:16:14.749Z,0.00
2023-03-16T03:17:14.621Z,0.00
2023-03-16T03:18:14.720Z,0.00
2023-03-16T03:19:14.623Z,0.00
2023-03-16T03:20:14.604Z,0.00
2023-03-16T03:21:14.597Z,0.00
2023-03-16T03:22:14.584Z,0.00
2023-03-16T03:23:14.566Z,0.00
2023-03-16T03:24:14.571Z,0.00
2023-03-16T03:25:14.564Z,0.00
2023-03-16T03:26:14.538Z,0.00
2023-03-16T03:27:14.525Z,0.00
2023-03-16T03:28:14.527Z,0.00
2023-03-16T03:29:14.517Z,0.00
2023-03-16T03:30:14.511Z,0.00
2023-03-16T03:31:14.502Z,0.00
2023-03-16T03:32:14.481Z,0.00
2023-03-16T03:33:14.495Z,0.00
2023-03-16T03:34:14.455Z,0.00
2023-03-16T03:35:14.450Z,0.00
2023-03-16T03:36:14.452Z,0.00
2023-03-16T03:37:14.419Z,0.00
2023-03-16T03:38:14.419Z,0.00
2023-03-16T03:39:14.412Z,0.00
2023-03-16T03:40:14.430Z,0.00
2023-03-16T03:41:14.391Z,0.00
2023-03-16T03:42:14.384Z,0.00
2023-03-16T03:43:14.366Z,0.00
2023-03-16T03:44:14.378Z,0.00
2023-03-16T03:45:14.365Z,0.00
2023-03-16T03:46:14.445Z,0.00
2023-03-16T03:47:23.441Z,0.00
2023-03-16T03:48:14.333Z,0.00
2023-03-16T03:49:14.332Z,0.00
2023-03-16T03:50:14.310Z,0.00
2023-03-16T03:51:14.277Z,0.00
2023-03-16T03:52:14.273Z,0.00
2023-03-16T03:53:14.279Z,0.00
2023-03-16T03:54:14.257Z,0.00
2023-03-16T03:55:14.241Z,0.00
2023-03-16T03:56:14.238Z,0.00
2023-03-16T03:57:14.221Z,0.00
2023-03-16T03:58:14.287Z,0.00
2023-03-16T03:59:14.212Z,0.00
2023-03-16T04:00:14.195Z,0.00
2023-03-16T04:01:14.180Z,0.00
2023-03-16T04:02:14.292Z,0.00
2023-03-16T04:03:14.328Z,0.00
2023-03-16T04:04:14.153Z,0.00
2023-03-16T04:05:14.154Z,0.00
2023-03-16T04:06:14.142Z,0.00
2023-03-16T04:07:14.122Z,0.00
2023-03-16T04:08:14.109Z,0.00
2023-03-16T04:09:14.098Z,0.00
2023-03-16T04:10:14.085Z,0.00
2023-03-16T04:11:14.075Z,0.00
2023-03-16T04:12:14.080Z,0.00
2023-03-16T04:13:14.051Z,0.00
2023-03-16T04:14:14.075Z,0.00
2023-03-16T04:15:14.026Z,0.00
2023-03-16T04:16:14.044Z,0.00
2023-03-16T04:17:14.026Z,0.00
2023-03-16T04:18:14.014Z,0.00
2023-03-16T04:19:13.992Z,0.00
2023-03-16T04:20:13.986Z,0.00
2023-03-16T04:21:13.923Z,1.00
2023-03-16T04:22:13.958Z,0.00
2023-03-16T04:23:13.972Z,0.00
2023-03-16T04:24:13.959Z,1.00
2023-03-16T04:25:13.934Z,0.00
2023-03-16T04:26:13.870Z,1.00
2023-03-16T04:27:13.923Z,0.00
2023-03-16T04:28:13.866Z,1.00
2023-03-16T04:29:13.893Z,0.00
2023-03-16T04:30:13.894Z,0.00
2023-03-16T04:31:13.989Z,0.00
2023-03-16T04:32:13.865Z,0.00
2023-03-16T04:33:13.862Z,0.00
2023-03-16T04:34:13.817Z,1.00
2023-03-16T04:35:13.832Z,0.00
2023-03-16T04:36:13.914Z,0.00
2023-03-16T04:37:13.756Z,1.00
2023-03-16T04:38:13.816Z,0.00
2023-03-16T04:39:13.791Z,0.00
2023-03-16T04:40:13.723Z,1.00
2023-03-16T04:41:13.785Z,0.00
2023-03-16T04:42:13.781Z,0.00
2023-03-16T04:43:13.717Z,1.00
2023-03-16T04:44:13.748Z,0.00
2023-03-16T04:45:13.727Z,0.00
2023-03-16T04:46:13.766Z,0.00
2023-03-16T04:47:13.708Z,0.00
2023-03-16T04:48:13.705Z,0.00
2023-03-16T04:49:13.712Z,0.00
2023-03-16T04:50:13.639Z,1.00
2023-03-16T04:51:13.687Z,0.00
2023-03-16T04:52:13.622Z,1.00
2023-03-16T04:53:13.651Z,0.00
2023-03-16T04:54:13.580Z,1.00
2023-03-16T04:55:13.639Z,0.00
2023-03-16T04:56:13.611Z,0.00
2023-03-16T04:57:13.614Z,0.00
2023-03-16T04:58:13.599Z,0.00
2023-03-16T04:59:13.590Z,0.00
2023-03-16T05:00:13.567Z,0.00
2023-03-16T05:01:13.622Z,0.00
2023-03-16T05:02:13.558Z,0.00
2023-03-16T05:03:13.537Z,0.00
2023-03-16T05:04:19.222Z,0.00
2023-03-16T05:05:13.567Z,0.00
2023-03-16T05:06:13.515Z,0.00
2023-03-16T05:07:13.522Z,0.00
2023-03-16T05:08:13.490Z,0.00
2023-03-16T05:09:13.493Z,0.00
2023-03-16T05:10:13.474Z,0.00
2023-03-16T05:11:13.490Z,0.00
2023-03-16T05:12:13.435Z,1.00
2023-03-16T05:13:13.387Z,1.00
2023-03-16T05:14:13.407Z,1.00
2023-03-16T05:15:13.369Z,1.00
2023-03-16T05:16:13.412Z,1.00
2023-03-16T05:17:13.349Z,1.00
2023-03-16T05:18:13.335Z,1.00
2023-03-16T05:19:13.337Z,1.00
2023-03-16T05:20:15.968Z,1.00
2023-03-16T05:21:13.376Z,0.00
2023-03-16T05:22:13.321Z,1.00
2023-03-16T05:23:13.313Z,1.00
2023-03-16T05:24:13.347Z,0.00
2023-03-16T05:25:13.319Z,0.00
2023-03-16T05:26:13.324Z,0.00
2023-03-16T05:27:13.317Z,0.00
2023-03-16T05:28:13.248Z,1.00
2023-03-16T05:29:14.048Z,0.00
2023-03-16T05:30:13.260Z,2.00
2023-03-16T05:31:13.335Z,1.00
2023-03-16T05:32:13.194Z,5.00
2023-03-16T05:33:13.205Z,4.00
2023-03-16T05:34:13.182Z,2.00
2023-03-16T05:35:13.182Z,1.00
2023-03-16T05:36:13.296Z,2.00
2023-03-16T05:37:13.157Z,5.00
2023-03-16T05:38:13.143Z,8.00
2023-03-16T05:39:13.131Z,6.00
2023-03-16T05:40:13.130Z,4.00
2023-03-16T05:41:13.111Z,7.00
2023-03-16T05:42:13.108Z,5.00
2023-03-16T05:43:13.095Z,7.00
2023-03-16T05:44:13.070Z,10.00
2023-03-16T05:45:13.099Z,10.00
2023-03-16T05:46:13.138Z,10.00
2023-03-16T05:47:13.059Z,8.00
2023-03-16T05:48:13.062Z,14.00
2023-03-16T05:49:13.039Z,18.00
2023-03-16T05:50:13.008Z,21.00
2023-03-16T05:51:13.018Z,23.00
2023-03-16T05:52:12.997Z,21.00
2023-03-16T05:53:12.978Z,24.00
2023-03-16T05:54:12.973Z,28.00
2023-03-16T05:55:12.973Z,33.00
2023-03-16T05:56:12.966Z,30.00
2023-03-16T05:57:12.948Z,25.00
2023-03-16T05:58:12.930Z,30.00
2023-03-16T05:59:12.921Z,33.00
2023-03-16T06:00:12.908Z,34.00
2023-03-16T06:01:12.923Z,39.00
2023-03-16T06:02:12.883Z,42.00
2023-03-16T06:03:12.919Z,46.00
2023-03-16T06:04:12.948Z,52.00
2023-03-16T06:05:12.870Z,52.00
2023-03-16T06:06:12.857Z,56.00
2023-03-16T06:07:12.834Z,58.00
2023-03-16T06:08:12.831Z,53.00
2023-03-16T06:09:12.841Z,54.00
2023-03-16T06:10:12.832Z,63.00
2023-03-16T06:11:12.789Z,63.00
2023-03-16T06:12:12.792Z,64.00
2023-03-16T06:13:12.765Z,66.00
2023-03-16T06:14:12.759Z,65.00
2023-03-16T06:15:12.757Z,67.00
2023-03-16T06:16:12.812Z,70.00
2023-03-16T06:17:12.726Z,72.00
2023-03-16T06:18:12.732Z,72.00
2023-03-16T06:19:12.710Z,77.00
2023-03-16T06:20:12.710Z,82.00
2023-03-16T06:21:12.681Z,89.00
2023-03-16T06:22:12.733Z,95.00
2023-03-16T06:23:12.665Z,99.00
2023-03-16T06:24:12.656Z,101.00
2023-03-16T06:25:12.670Z,109.00
2023-03-16T06:26:12.632Z,116.00
2023-03-16T06:27:12.611Z,128.00
2023-03-16T06:28:12.611Z,138.00
2023-03-16T06:29:12.605Z,151.00
2023-03-16T06:30:12.578Z,154.00
2023-03-16T06:31:12.636Z,162.00
2023-03-16T06:32:12.566Z,165.00
2023-03-16T06:33:12.556Z,166.00
2023-03-16T06:34:12.539Z,168.00
2023-03-16T06:35:12.553Z,169.00
2023-03-16T06:36:12.611Z,174.00
2023-03-16T06:37:12.520Z,182.00
2023-03-16T06:38:12.497Z,181.00
2023-03-16T06:39:12.483Z,185.00
2023-03-16T06:40:12.469Z,200.00
2023-03-16T06:41:12.471Z,198.00
2023-03-16T06:42:12.463Z,198.00
2023-03-16T06:43:12.457Z,202.00
2023-03-16T06:44:12.430Z,208.00
2023-03-16T06:45:12.428Z,206.00
2023-03-16T06:46:12.638Z,218.00
2023-03-16T06:47:12.403Z,226.00
2023-03-16T06:48:12.417Z,223.00
2023-03-16T06:49:12.376Z,235.00
2023-03-16T06:50:12.386Z,232.00
2023-03-16T06:51:12.394Z,244.00
2023-03-16T06:52:12.335Z,263.00
2023-03-16T06:53:12.353Z,268.00
2023-03-16T06:54:12.317Z,290.00
2023-03-16T06:55:12.346Z,300.00
2023-03-16T06:56:12.311Z,330.00
2023-03-16T06:57:12.294Z,348.00
2023-03-16T06:58:12.276Z,353.00
2023-03-16T06:59:12.301Z,365.00
2023-03-16T07:00:12.270Z,352.00
2023-03-16T07:01:12.302Z,371.00
2023-03-16T07:02:12.255Z,370.00
2023-03-16T07:03:12.229Z,338.00
2023-03-16T07:04:12.235Z,309.00
2023-03-16T07:05:12.223Z,284.00
2023-03-16T07:06:12.221Z,272.00
2023-03-16T07:07:12.197Z,250.00
2023-03-16T07:08:12.169Z,227.00
2023-03-16T07:09:12.163Z,223.00
2023-03-16T07:10:12.148Z,224.00
2023-03-16T07:11:12.161Z,227.00
2023-03-16T07:12:12.136Z,237.00
2023-03-16T07:13:12.145Z,249.00
2023-03-16T07:14:12.111Z,257.00
2023-03-16T07:15:12.108Z,270.00
2023-03-16T07:16:12.112Z,289.00
2023-03-16T07:17:12.100Z,303.00
2023-03-16T07:18:12.065Z,314.00
2023-03-16T07:19:12.047Z,322.00
2023-03-16T07:20:12.034Z,338.00
2023-03-16T07:21:12.034Z,356.00
2023-03-16T07:22:12.015Z,387.00
2023-03-16T07:23:12.044Z,415.00
2023-03-16T07:24:11.993Z,420.00
2023-03-16T07:25:11.986Z,409.00
2023-03-16T07:26:11.993Z,410.00
2023-03-16T07:27:12.632Z,418.00
2023-03-16T07:28:11.988Z,429.00
2023-03-16T07:29:11.990Z,443.00
2023-03-16T07:30:11.968Z,457.00
2023-03-16T07:31:11.943Z,449.00
2023-03-16T07:32:11.940Z,484.00
2023-03-16T07:33:11.981Z,529.00
2023-03-16T07:34:11.914Z,448.00
2023-03-16T07:35:11.889Z,770.00
2023-03-16T07:36:11.942Z,1011.00
2023-03-16T07:37:11.874Z,785.00
2023-03-16T07:38:11.875Z,572.00
2023-03-16T07:39:11.837Z,640.00
2023-03-16T07:40:11.836Z,642.00
2023-03-16T07:41:11.830Z,615.00
2023-03-16T07:42:11.834Z,640.00
2023-03-16T07:43:11.803Z,551.00
2023-03-16T07:44:11.830Z,559.00
2023-03-16T07:45:11.781Z,580.00
2023-03-16T07:46:11.913Z,549.00
2023-03-16T07:47:11.773Z,531.00
2023-03-16T07:48:11.747Z,524.00
2023-03-16T07:49:11.736Z,595.00
2023-03-16T07:50:11.745Z,562.00
2023-03-16T07:51:11.727Z,553.00
2023-03-16T07:52:11.708Z,582.00
2023-03-16T07:53:11.707Z,557.00
2023-03-16T07:54:11.676Z,576.00
2023-03-16T07:55:11.682Z,588.00
2023-03-16T07:56:11.661Z,597.00
2023-03-16T07:57:11.680Z,610.00
2023-03-16T07:58:11.650Z,593.00
2023-03-16T07:59:11.648Z,654.00
2023-03-16T08:00:11.629Z,648.00
2023-03-16T08:01:11.617Z,734.00
2023-03-16T08:02:11.725Z,765.00
2023-03-16T08:03:11.650Z,896.00
2023-03-16T08:04:11.574Z,990.00
2023-03-16T08:05:11.633Z,844.00
2023-03-16T08:06:11.577Z,773.00
2023-03-16T08:07:11.582Z,701.00
2023-03-16T08:08:11.541Z,671.00
2023-03-16T08:09:11.542Z,686.00
2023-03-16T08:10:11.508Z,670.00
2023-03-16T08:11:11.509Z,690.00
2023-03-16T08:12:11.491Z,660.00
2023-03-16T08:13:11.530Z,717.00
2023-03-16T08:14:11.496Z,715.00
2023-03-16T08:15:11.487Z,729.00
2023-03-16T08:16:11.487Z,739.00
2023-03-16T08:17:11.492Z,733.00
2023-03-16T08:18:11.471Z,766.00
2023-03-16T08:19:11.441Z,768.00
2023-03-16T08:20:11.420Z,791.00
2023-03-16T08:21:11.428Z,791.00
2023-03-16T08:22:11.728Z,808.00
2023-03-16T08:23:11.406Z,800.00
2023-03-16T08:24:11.395Z,780.00
2023-03-16T08:25:11.374Z,793.00
2023-03-16T08:26:11.370Z,756.00
2023-03-16T08:27:11.400Z,771.00
2023-03-16T08:28:11.359Z,735.00
2023-03-16T08:29:11.457Z,684.00
2023-03-16T08:30:11.348Z,648.00
2023-03-16T08:31:11.404Z,601.00
2023-03-16T08:32:11.298Z,567.00
2023-03-16T08:33:11.316Z,542.00
2023-03-16T08:34:11.297Z,526.00
2023-03-16T08:35:11.277Z,519.00
2023-03-16T08:36:11.287Z,520.00
2023-03-16T08:37:11.278Z,530.00
2023-03-16T08:38:11.264Z,544.00
2023-03-16T08:39:12.156Z,555.00
2023-03-16T08:40:11.256Z,574.00
2023-03-16T08:41:11.269Z,596.00
2023-03-16T08:42:11.215Z,619.00
2023-03-16T08:43:11.175Z,633.00
2023-03-16T08:44:11.197Z,646.00
2023-03-16T08:45:13.984Z,666.00
2023-03-16T08:46:11.192Z,675.00
2023-03-16T08:47:11.235Z,685.00
2023-03-16T08:48:11.140Z,683.00
2023-03-16T08:49:11.123Z,670.00
2023-03-16T08:50:11.134Z,649.00
2023-03-16T08:51:11.101Z,630.00
2023-03-16T08:52:11.175Z,610.00
2023-03-16T08:53:11.080Z,602.00
2023-03-16T08:54:11.091Z,584.00
2023-03-16T08:55:11.068Z,573.00
2023-03-16T08:56:11.097Z,560.00
2023-03-16T08:57:11.044Z,548.00
2023-03-16T08:58:11.024Z,533.00
2023-03-16T08:59:23.615Z,526.00
2023-03-16T09:00:11.024Z,504.00
2023-03-16T09:01:10.993Z,493.00
2023-03-16T09:02:11.040Z,473.00
2023-03-16T09:03:10.976Z,452.00
2023-03-16T09:04:11.035Z,437.00
2023-03-16T09:05:10.947Z,436.00
2023-03-16T09:06:10.941Z,437.00
2023-03-16T09:07:10.940Z,434.00
2023-03-16T09:08:10.930Z,431.00
2023-03-16T09:09:10.904Z,430.00
2023-03-16T09:10:10.901Z,434.00
2023-03-16T09:11:10.886Z,448.00
2023-03-16T09:12:10.898Z,449.00
2023-03-16T09:13:10.922Z,465.00
2023-03-16T09:14:10.871Z,471.00
2023-03-16T09:15:10.840Z,479.00
2023-03-16T09:16:10.880Z,474.00
2023-03-16T09:17:10.819Z,477.00
2023-03-16T09:18:10.828Z,469.00
2023-03-16T09:19:10.814Z,458.00
2023-03-16T09:20:21.901Z,458.00
2023-03-16T09:21:10.784Z,469.00
2023-03-16T09:22:10.775Z,473.00
2023-03-16T09:23:10.796Z,494.00
2023-03-16T09:24:10.774Z,515.00
2023-03-16T09:25:10.765Z,542.00
2023-03-16T09:26:10.770Z,556.00
2023-03-16T09:27:10.799Z,565.00
2023-03-16T09:28:10.713Z,575.00
2023-03-16T09:29:10.717Z,589.00
2023-03-16T09:30:10.701Z,608.00
2023-03-16T09:31:10.726Z,616.00
2023-03-16T09:32:10.705Z,626.00
2023-03-16T09:33:10.737Z,646.00
2023-03-16T09:34:10.665Z,658.00
2023-03-16T09:35:10.641Z,669.00
2023-03-16T09:36:10.710Z,682.00
2023-03-16T09:37:10.661Z,705.00
2023-03-16T09:38:10.666Z,735.00
2023-03-16T09:39:10.591Z,795.00
2023-03-16T09:40:12.162Z,863.00
2023-03-16T09:41:10.601Z,908.00
2023-03-16T09:42:10.615Z,909.00
2023-03-16T09:43:10.589Z,896.00
2023-03-16T09:44:10.544Z,899.00
2023-03-16T09:45:10.552Z,929.00
2023-03-16T09:46:10.596Z,959.00
2023-03-16T09:47:10.560Z,980.00
2023-03-16T09:48:10.524Z,994.00
2023-03-16T09:49:10.505Z,1036.00
2023-03-16T09:50:10.519Z,1060.00
2023-03-16T09:51:10.569Z,1092.00
2023-03-16T09:52:10.483Z,1130.00
2023-03-16T09:53:10.453Z,1160.00
2023-03-16T09:54:10.454Z,1206.00
2023-03-16T09:55:10.462Z,1210.00
2023-03-16T09:56:10.428Z,1201.00
2023-03-16T09:57:10.449Z,1194.00
2023-03-16T09:58:10.414Z,1168.00
2023-03-16T09:59:10.402Z,1141.00
2023-03-16T10:00:10.400Z,1143.00
2023-03-16T10:01:10.415Z,1138.00
2023-03-16T10:02:10.369Z,1119.00
2023-03-16T10:03:10.357Z,1119.00
2023-03-16T10:04:10.493Z,1121.00
2023-03-16T10:05:10.351Z,1108.00
2023-03-16T10:06:10.324Z,1110.00
2023-03-16T10:07:10.340Z,1105.00
2023-03-16T10:08:10.328Z,1076.00
2023-03-16T10:09:10.307Z,1058.00
2023-03-16T10:10:10.281Z,1009.00
2023-03-16T10:11:10.276Z,980.00
2023-03-16T10:12:10.261Z,979.00
2023-03-16T10:13:10.267Z,993.00
2023-03-16T10:14:10.242Z,1023.00
2023-03-16T10:15:10.368Z,1055.00
2023-03-16T10:16:10.239Z,1079.00
2023-03-16T10:17:10.289Z,1076.00
2023-03-16T10:18:12.358Z,1034.00
2023-03-16T10:19:10.210Z,990.00
2023-03-16T10:20:10.199Z,1002.00
2023-03-16T10:21:10.156Z,1030.00
2023-03-16T10:22:10.185Z,1071.00
2023-03-16T10:23:10.160Z,1137.00
2023-03-16T10:24:10.131Z,1199.00
2023-03-16T10:25:10.123Z,1219.00
2023-03-16T10:26:10.136Z,1180.00
2023-03-16T10:27:10.099Z,1128.00
2023-03-16T10:28:10.112Z,1108.00
2023-03-16T10:29:10.084Z,1112.00
2023-03-16T10:30:10.072Z,1149.00
2023-03-16T10:31:10.087Z,1154.00
2023-03-16T10:32:10.077Z,1113.00
2023-03-16T10:33:10.385Z,1031.00
2023-03-16T10:34:10.093Z,991.00
2023-03-16T10:35:10.037Z,986.00
2023-03-16T10:36:10.052Z,969.00
2023-03-16T10:37:10.013Z,942.00
2023-03-16T10:38:09.993Z,931.00
2023-03-16T10:39:09.978Z,959.00
2023-03-16T10:40:09.976Z,974.00
2023-03-16T10:41:09.948Z,956.00
2023-03-16T10:42:10.764Z,906.00
2023-03-16T10:43:09.925Z,839.00
2023-03-16T10:44:09.927Z,813.00
2023-03-16T10:45:09.920Z,789.00
2023-03-16T10:46:09.966Z,760.00
2023-03-16T10:47:09.929Z,745.00
2023-03-16T10:48:09.883Z,714.00
2023-03-16T10:49:09.869Z,714.00
2023-03-16T10:50:09.861Z,735.00
2023-03-16T10:51:09.853Z,754.00
2023-03-16T10:52:09.868Z,773.00
2023-03-16T10:53:09.825Z,796.00
2023-03-16T10:54:09.827Z,801.00
2023-03-16T10:55:09.824Z,805.00
2023-03-16T10:56:09.809Z,816.00
2023-03-16T10:57:09.811Z,865.00
2023-03-16T10:58:09.790Z,920.00
2023-03-16T10:59:09.769Z,890.00
2023-03-16T11:00:09.787Z,865.00
2023-03-16T11:01:09.793Z,778.00
2023-03-16T11:02:09.757Z,694.00
2023-03-16T11:03:09.729Z,611.00
2023-03-16T11:04:09.749Z,576.00
2023-03-16T11:05:09.717Z,580.00
2023-03-16T11:06:09.727Z,556.00
2023-03-16T11:07:09.701Z,538.00
2023-03-16T11:08:09.678Z,548.00
2023-03-16T11:09:10.480Z,601.00
2023-03-16T11:10:09.656Z,612.00
2023-03-16T11:11:09.658Z,679.00
2023-03-16T11:12:09.646Z,707.00
2023-03-16T11:13:09.636Z,745.00
2023-03-16T11:14:09.663Z,794.00
2023-03-16T11:15:17.054Z,824.00
2023-03-16T11:16:09.637Z,835.00
2023-03-16T11:17:09.590Z,862.00
2023-03-16T11:18:09.593Z,869.00
2023-03-16T11:19:09.570Z,900.00
2023-03-16T11:20:09.602Z,925.00
2023-03-16T11:21:09.549Z,990.00
2023-03-16T11:22:09.553Z,1013.00
2023-03-16T11:23:09.518Z,1025.00
2023-03-16T11:24:09.509Z,1070.00
2023-03-16T11:25:09.531Z,1106.00
2023-03-16T11:26:09.522Z,1100.00
2023-03-16T11:27:09.484Z,1079.00
2023-03-16T11:28:09.469Z,1002.00
2023-03-16T11:29:09.494Z,1024.00
2023-03-16T11:30:09.459Z,1043.00
2023-03-16T11:31:09.601Z,1035.00
2023-03-16T11:32:09.492Z,1025.00
2023-03-16T11:33:09.462Z,1009.00
2023-03-16T11:34:09.459Z,1093.00
2023-03-16T11:35:09.395Z,1014.00
2023-03-16T11:36:09.438Z,1034.00
2023-03-16T11:37:09.372Z,1112.00
2023-03-16T11:38:09.375Z,1143.00
2023-03-16T11:39:09.377Z,1176.00
2023-03-16T11:40:09.368Z,1163.00
2023-03-16T11:41:09.345Z,1111.00
2023-03-16T11:42:09.337Z,1154.00
2023-03-16T11:43:09.316Z,1083.00
2023-03-16T11:44:09.325Z,1149.00
2023-03-16T11:45:09.315Z,1120.00
2023-03-16T11:46:09.318Z,1163.00
2023-03-16T11:47:09.329Z,1207.00
2023-03-16T11:49:19.564Z,1191.00
2023-03-16T11:50:20.520Z,1156.00
2023-03-16T11:51:20.531Z,1238.00
2023-03-16T11:52:20.480Z,1268.00
2023-03-16T11:53:20.496Z,1279.00
2023-03-16T11:54:20.456Z,1216.00
2023-03-16T11:55:20.469Z,1214.00
2023-03-16T11:56:20.436Z,1119.00
2023-03-16T11:57:20.424Z,1186.00
2023-03-16T11:58:20.422Z,1032.00
2023-03-16T11:59:20.406Z,1099.00
2023-03-16T12:00:20.407Z,1054.00
2023-03-16T12:01:20.389Z,940.00
2023-03-16T12:02:20.622Z,854.00
2023-03-16T12:03:20.438Z,918.00
2023-03-16T12:04:20.421Z,914.00
2023-03-16T12:05:20.357Z,801.00
2023-03-16T12:06:23.518Z,936.00
2023-03-16T12:07:20.421Z,876.00
2023-03-16T12:08:20.307Z,838.00
2023-03-16T12:09:20.319Z,842.00
2023-03-16T12:10:20.327Z,853.00
2023-03-16T12:11:20.280Z,815.00
2023-03-16T12:12:20.301Z,792.00
2023-03-16T12:13:20.331Z,814.00
2023-03-16T12:14:20.320Z,857.00
2023-03-16T12:15:20.355Z,878.00
2023-03-16T12:16:20.302Z,870.00
2023-03-16T12:17:20.211Z,891.00
2023-03-16T12:18:20.198Z,897.00
2023-03-16T12:19:20.196Z,861.00
2023-03-16T12:20:20.216Z,906.00
2023-03-16T12:21:20.205Z,812.00
2023-03-16T12:22:20.161Z,856.00
2023-03-16T12:23:20.139Z,920.00
2023-03-16T12:24:20.136Z,881.00
2023-03-16T12:25:20.130Z,926.00
2023-03-16T12:26:20.113Z,1023.00
2023-03-16T12:27:20.112Z,966.00
2023-03-16T12:28:20.113Z,999.00
2023-03-16T12:29:20.093Z,1057.00
2023-03-16T12:30:20.064Z,984.00
2023-03-16T12:31:20.104Z,1051.00
2023-03-16T12:32:20.044Z,1090.00
2023-03-16T12:33:20.037Z,1147.00
2023-03-16T12:34:20.035Z,1119.00
2023-03-16T12:35:20.018Z,1103.00
2023-03-16T12:36:20.022Z,1101.00
2023-03-16T12:37:20.001Z,1105.00
2023-03-16T12:38:19.978Z,1096.00
2023-03-16T12:39:19.984Z,1086.00
2023-03-16T12:40:19.960Z,1064.00
2023-03-16T12:41:19.951Z,1040.00
2023-03-16T12:42:19.945Z,1027.00
2023-03-16T12:43:19.937Z,1005.00
2023-03-16T12:44:19.919Z,990.00
2023-03-16T12:45:19.925Z,991.00
2023-03-16T12:46:19.930Z,991.00
2023-03-16T12:47:19.887Z,990.00
2023-03-16T12:48:19.986Z,976.00
2023-03-16T12:49:19.876Z,960.00